Time;durP1;ratioP1;P1;durP2;ratioP2;P2;SDS_P1;SDS_P2;PMS_P1;PMS_P2;Temp;Humidity;BMP_temperature;BMP_pressure;BME280_temperature;BME280_humidity;BME280_pressure;Samples;Min_cycle;Max_cycle;Signal;HPM_P1;HPM_P2
2022/07/02 00:01:05;;;;;;;8.38;2.60;;;;;;;14.44;100.00;-25473.34;5087394;28;20487;-75
2022/07/02 00:03:36;;;;;;;9.82;2.53;;;;;;;14.44;100.00;-25473.19;5062202;28;20464;-75
2022/07/02 00:06:04;;;;;;;8.30;2.45;;;;;;;14.39;100.00;-25471.88;5073351;28;20040;-75
2022/07/02 00:08:30;;;;;;;10.40;2.45;;;;;;;14.44;100.00;-25473.34;5035612;28;20024;-77
2022/07/02 00:10:58;;;;;;;8.02;2.42;;;;;;;14.42;100.00;-25472.59;5073592;28;20030;-79
2022/07/02 00:13:27;;;;;;;7.88;2.50;;;;;;;14.32;100.00;-25469.97;5052427;28;20031;-77
2022/07/02 00:15:53;;;;;;;10.40;2.45;;;;;;;14.29;100.00;-25469.09;5035839;28;20048;-82
2022/07/02 00:18:20;;;;;;;6.07;2.17;;;;;;;14.26;100.00;-25468.09;5072553;28;20042;-78
2022/07/02 00:20:46;;;;;;;9.55;2.88;;;;;;;14.27;100.00;-25468.38;5055908;28;20024;-79
2022/07/02 00:23:12;;;;;;;10.77;2.28;;;;;;;14.27;100.00;-25468.38;5054578;28;20384;-77
2022/07/02 00:25:40;;;;;;;8.63;2.13;;;;;;;14.26;100.00;-25468.22;5053389;28;20028;-76
2022/07/02 00:28:06;;;;;;;9.98;2.17;;;;;;;14.27;100.00;-25468.38;5056876;28;20040;-79
2022/07/02 00:30:33;;;;;;;7.68;2.22;;;;;;;14.28;100.00;-25468.66;5066087;28;20012;-77
2022/07/02 00:33:00;;;;;;;6.32;2.10;;;;;;;14.27;100.00;-25468.38;5084468;28;20032;-79
2022/07/02 00:35:26;;;;;;;5.80;1.85;;;;;;;14.22;100.00;-25467.06;5065607;28;20088;-80
2022/07/02 00:37:53;;;;;;;6.18;1.80;;;;;;;14.21;100.00;-25466.78;5070599;28;20020;-81
2022/07/02 00:40:19;;;;;;;8.15;2.28;;;;;;;14.22;100.00;-25466.91;5058846;28;20268;-78
2022/07/02 00:42:46;;;;;;;7.35;1.90;;;;;;;14.21;100.00;-25466.78;5052878;28;20037;-74
2022/07/02 00:45:12;;;;;;;6.50;2.47;;;;;;;14.19;100.00;-25466.19;5054266;28;20626;-77
2022/07/02 00:47:39;;;;;;;5.03;1.63;;;;;;;14.17;100.00;-25465.59;5053870;28;20123;-79
2022/07/02 00:50:05;;;;;;;7.40;1.80;;;;;;;14.19;100.00;-25466.34;5054944;28;20414;-81
2022/07/02 00:52:32;;;;;;;5.03;1.70;;;;;;;14.17;100.00;-24807.16;5054192;28;20107;-75
2022/07/02 00:54:59;;;;;;;5.90;1.60;;;;;;;14.17;100.00;-23493.78;5058195;28;20020;-78
2022/07/02 00:57:24;;;;;;;6.68;1.65;;;;;;;14.11;100.00;-22178.63;5057432;28;20080;-78
2022/07/02 00:59:50;;;;;;;5.13;1.50;;;;;;;14.14;100.00;-21522.25;5055108;28;20040;-76
2022/07/02 01:02:16;;;;;;;6.38;1.80;;;;;;;14.12;100.00;-20864.53;5065739;28;20032;-77
2022/07/02 01:04:45;;;;;;;6.22;1.52;;;;;;;14.10;100.00;-20206.84;5053147;28;20418;-77
2022/07/02 01:07:14;;;;;;;6.90;1.70;;;;;;;14.10;100.00;-19549.50;5043444;28;20065;-76
2022/07/02 01:12:27;;;;;;;5.28;1.55;;;;;;;14.04;100.00;-17247.00;5072550;28;20050;-76
2022/07/02 01:14:54;;;;;;;11.77;1.65;;;;;;;13.99;100.00;-16917.41;5035808;28;20052;-76
2022/07/02 01:17:19;;;;;;;5.63;1.27;;;;;;;14.00;100.00;-16588.59;5053824;28;20031;-76
2022/07/02 01:19:46;;;;;;;5.75;1.35;;;;;;;13.99;100.00;-15930.63;5053661;28;20032;-80
2022/07/02 01:22:14;;;;;;;4.25;1.58;;;;;;;13.98;100.00;-14943.50;5053602;28;20031;-76
2022/07/02 01:24:41;;;;;;;5.70;1.52;;;;;;;13.99;100.00;-14285.47;5070839;28;20029;-76
2022/07/02 01:27:06;;;;;;;4.15;1.67;;;;;;;13.97;100.00;-13627.00;5064596;28;20062;-75
2022/07/02 01:29:32;;;;;;;3.90;1.48;;;;;;;13.91;100.00;-12638.91;5072066;28;20020;-76
2022/07/02 01:31:57;;;;;;;3.30;1.30;;;;;;;13.90;100.00;-12309.59;5059009;28;20037;-76
2022/07/02 01:34:23;;;;;;;4.90;1.42;;;;;;;13.91;100.00;-11651.16;5036706;28;20113;-77
2022/07/02 01:36:49;;;;;;;5.22;1.50;;;;;;;13.88;100.00;-10992.31;5058898;28;20036;-76
2022/07/02 01:39:14;;;;;;;6.25;1.50;;;;;;;13.86;100.00;-10662.91;5054756;28;20033;-77
2022/07/02 01:41:42;;;;;;;4.35;1.60;;;;;;;13.81;100.00;-10333.31;5057014;28;20422;-76
2022/07/02 01:44:08;;;;;;;7.72;1.48;;;;;;;13.75;100.00;-10662.34;5060975;28;20031;-75
2022/07/02 01:46:34;;;;;;;4.78;1.50;;;;;;;13.77;100.00;-10991.75;5057127;28;20028;-81
2022/07/02 01:49:00;;;;;;;5.32;1.30;;;;;;;13.76;100.00;-10991.66;5054477;28;20021;-79
2022/07/02 01:51:26;;;;;;;7.80;1.55;;;;;;;13.73;100.00;-10662.25;5054762;28;20032;-83
2022/07/02 01:54:03;;;;;;;5.22;1.67;;;;;;;13.73;100.00;-10662.22;5054269;28;20078;-78
2022/07/02 01:56:37;;;;;;;7.47;1.40;;;;;;;13.72;100.00;-10662.19;5080557;28;20033;-79
2022/07/02 01:59:03;;;;;;;5.60;1.40;;;;;;;13.70;100.00;-10332.81;5056121;28;20055;-81
2022/07/02 02:01:29;;;;;;;7.00;1.42;;;;;;;13.69;100.00;-10003.44;5053898;28;20020;-76
2022/07/02 02:03:58;;;;;;;5.13;1.20;;;;;;;13.70;100.00;-10332.78;5053351;28;20028;-79
2022/07/02 02:06:24;;;;;;;4.30;1.52;;;;;;;13.63;100.00;-10661.75;5056577;28;20039;-76
2022/07/02 02:08:50;;;;;;;4.13;1.40;;;;;;;13.59;100.00;-11649.06;5066865;28;20115;-79
2022/07/02 02:11:15;;;;;;;5.45;1.58;;;;;;;13.58;100.00;-12636.22;5060724;28;20059;-78
2022/07/02 02:13:41;;;;;;;6.10;1.55;;;;;;;13.55;100.00;-13622.84;5071772;28;20468;-75
2022/07/02 02:16:06;;;;;;;6.43;1.75;;;;;;;13.52;100.00;-13951.50;5060370;28;20496;-76
2022/07/02 02:18:32;;;;;;;3.33;1.25;;;;;;;13.50;100.00;-14609.00;5053228;28;20032;-75
2022/07/02 02:20:57;;;;;;;2.83;1.30;;;;;;;13.51;100.00;-15266.63;5058032;28;20020;-76
2022/07/02 02:23:24;;;;;;;5.13;1.50;;;;;;;13.47;100.00;-16252.31;5061245;28;20040;-76
2022/07/02 02:25:49;;;;;;;6.70;1.85;;;;;;;13.45;100.00;-16580.75;5053386;28;20794;-76
2022/07/02 02:28:14;;;;;;;3.20;1.48;;;;;;;13.45;100.00;-17237.88;5061111;28;20031;-76
2022/07/02 02:30:40;;;;;;;5.03;1.50;;;;;;;13.42;100.00;-17565.94;5077036;28;20464;-77
2022/07/02 02:33:07;;;;;;;6.03;1.48;;;;;;;13.40;100.00;-17894.09;5076559;28;20028;-75
2022/07/02 02:35:33;;;;;;;3.50;1.40;;;;;;;13.41;100.00;-18222.75;5065982;28;20047;-74
2022/07/02 02:37:58;;;;;;;9.52;1.70;;;;;;;13.40;100.00;-18879.53;5056591;28;20472;-76
2022/07/02 02:40:23;;;;;;;4.57;1.60;;;;;;;13.35;100.00;-18550.13;5066685;28;20721;-76
2022/07/02 02:42:49;;;;;;;5.90;1.95;;;;;;;13.32;100.00;-18878.03;5077592;28;20495;-77
2022/07/02 02:45:14;;;;;;;6.00;1.20;;;;;;;13.29;100.00;-19534.22;5073826;28;20016;-84
2022/07/02 02:47:40;;;;;;;4.45;1.38;;;;;;;13.25;100.00;-19861.69;5078088;28;20047;-83
2022/07/02 02:50:06;;;;;;;4.78;1.50;;;;;;;13.24;100.00;-20517.78;5063075;28;20024;-76
2022/07/02 02:52:31;;;;;;;3.97;1.60;;;;;;;13.19;100.00;-20844.97;5072468;28;20024;-76
2022/07/02 02:54:56;;;;;;;5.00;1.50;;;;;;;13.16;100.00;-21172.31;5064873;28;20028;-76
2022/07/02 02:57:22;;;;;;;3.92;1.50;;;;;;;13.10;100.00;-22155.09;5076398;28;20477;-76
2022/07/02 02:59:47;;;;;;;5.82;1.52;;;;;;;13.06;100.00;-22809.97;5073547;28;20016;-75
2022/07/02 03:02:13;;;;;;;6.88;1.58;;;;;;;13.06;100.00;-24121.28;5060479;28;20400;-76
2022/07/02 03:04:38;;;;;;;4.00;1.40;;;;;;;13.01;100.00;-24775.53;5055817;28;20063;-81
2022/07/02 03:07:04;;;;;;;3.53;1.30;;;;;;;13.02;100.00;-25431.00;5065125;28;20028;-76
2022/07/02 03:09:31;;;;;;;5.50;1.40;;;;;;;13.01;100.00;-25432.78;5075144;28;20055;-77
2022/07/02 03:11:56;;;;;;;4.47;1.30;;;;;;;13.00;100.00;-25432.31;5056809;28;20029;-76
2022/07/02 03:14:23;;;;;;;8.90;1.70;;;;;;;13.00;100.00;-25432.47;5089756;28;20389;-76
2022/07/02 03:16:51;;;;;;;6.53;1.52;;;;;;;12.98;100.00;-25431.88;5074044;28;20056;-78
2022/07/02 03:19:16;;;;;;;5.03;1.50;;;;;;;12.92;100.00;-25430.13;5057002;28;20028;-75
2022/07/02 03:21:41;;;;;;;4.68;1.70;;;;;;;12.88;100.00;-25429.13;5064608;28;20081;-76
2022/07/02 03:24:07;;;;;;;7.45;1.55;;;;;;;12.92;100.00;-25430.13;5075622;28;20031;-75
2022/07/02 03:26:32;;;;;;;6.07;1.50;;;;;;;12.91;100.00;-25430.00;5075722;28;20133;-76
2022/07/02 03:28:58;;;;;;;6.30;1.52;;;;;;;12.91;100.00;-25430.00;5075121;28;20035;-76
2022/07/02 03:31:23;;;;;;;3.30;1.90;;;;;;;12.92;100.00;-25430.28;5060786;28;20055;-78
2022/07/02 03:33:49;;;;;;;5.88;1.50;;;;;;;12.99;100.00;-25432.03;5056190;28;20031;-76
2022/07/02 03:36:15;;;;;;;5.47;1.52;;;;;;;13.00;100.00;-25432.31;5057789;28;20047;-80
2022/07/02 03:38:40;;;;;;;4.63;1.50;;;;;;;13.00;100.00;-25432.31;5057126;28;20035;-80
2022/07/02 03:41:06;;;;;;;5.07;1.80;;;;;;;13.06;100.00;-25434.09;5058461;28;20150;-82
2022/07/02 03:43:33;;;;;;;4.95;1.60;;;;;;;13.09;100.00;-25434.97;5075737;28;20047;-81
2022/07/02 03:45:58;;;;;;;5.53;1.50;;;;;;;13.13;100.00;-25434.22;5095051;28;20028;-83
2022/07/02 03:48:24;;;;;;;5.85;1.50;;;;;;;13.14;100.00;-25106.78;5078320;28;20028;-82
2022/07/02 03:50:50;;;;;;;5.47;1.92;;;;;;;13.21;100.00;-24453.19;5076508;28;20115;-78
2022/07/02 03:53:16;;;;;;;4.72;1.50;;;;;;;13.26;100.00;-24126.72;5054676;28;20029;-81
2022/07/02 03:55:42;;;;;;;4.93;1.92;;;;;;;13.31;100.00;-23143.97;5056839;28;20029;-82
2022/07/02 03:58:07;;;;;;;3.67;1.30;;;;;;;13.36;100.00;-22161.19;5057227;28;20024;-82
2022/07/02 04:00:33;;;;;;;4.97;1.40;;;;;;;13.44;100.00;-21506.66;5056304;28;20032;-80
2022/07/02 04:03:00;;;;;;;5.40;1.50;;;;;;;14.02;100.00;-21519.53;5063952;28;20123;-81
2022/07/02 04:05:25;;;;;;;4.47;1.58;;;;;;;15.05;100.00;-18909.13;5056480;28;20042;-78
2022/07/02 04:07:51;;;;;;;4.45;1.30;;;;;;;16.06;100.00;-9682.16;5056928;28;20029;-78
2022/07/02 04:10:16;;;;;;;5.35;1.30;;;;;;;16.80;100.00;7564.31;5056943;28;20024;-80
2022/07/02 04:12:43;;;;;;;4.53;1.20;;;;;;;17.51;100.00;36310.03;5068082;28;20033;-83
2022/07/02 04:15:09;;;;;;;5.10;1.30;;;;;;;18.72;100.00;81667.34;5075787;28;20046;-83
2022/07/02 04:17:34;;;;;;;3.13;1.05;;;;;;;19.52;100.00;147632.91;5066278;28;20037;-81
2022/07/02 04:20:00;;;;;;;3.72;1.00;;;;;;;19.61;100.00;147654.63;5056284;28;20372;-83
2022/07/02 04:22:25;;;;;;;5.05;0.98;;;;;;;20.03;100.00;147759.72;5056132;28;20032;-82
2022/07/02 04:24:51;;;;;;;3.88;0.80;;;;;;;20.46;100.00;147867.28;5055882;28;20040;-81
2022/07/02 04:27:18;;;;;;;3.65;1.20;;;;;;;20.90;100.00;147977.56;5056114;28;20453;-81
2022/07/02 04:29:44;;;;;;;3.67;0.90;;;;;;;21.03;100.00;148008.31;5073983;28;20035;-84
2022/07/02 04:32:09;;;;;;;3.97;1.00;;;;;;;21.70;100.00;148176.28;5055966;28;20123;-81
2022/07/02 04:34:36;;;;;;;4.65;1.10;;;;;;;21.96;100.00;148240.41;5039466;28;20056;-82
2022/07/02 04:37:01;;;;;;;5.00;1.10;;;;;;;22.36;100.00;148340.53;5079568;28;20024;-84
2022/07/02 04:39:26;;;;;;;3.70;0.90;;;;;;;22.97;100.00;148491.91;5056830;28;20052;-85
2022/07/02 04:41:52;;;;;;;4.93;1.27;;;;;;;23.01;100.00;148503.47;5064003;28;20372;-83
2022/07/02 04:44:22;;;;;;;5.68;1.00;;;;;;;23.88;100.00;148719.19;5074562;28;20023;-83
2022/07/02 04:46:48;;;;;;;3.70;0.90;;;;;;;23.72;100.00;148680.63;5056702;28;20465;-84
2022/07/02 04:49:13;;;;;;;4.47;1.00;;;;;;;23.60;100.00;148649.81;5062498;28;20121;-84
2022/07/02 04:51:38;;;;;;;4.85;1.20;;;;;;;24.28;100.00;148819.38;5074373;28;20020;-81
2022/07/02 04:54:13;;;;;;;6.43;1.23;;;;;;;24.07;100.00;148766.75;5055876;28;20033;-82
2022/07/02 04:56:38;;;;;;;3.95;1.23;;;;;;;24.22;100.00;148805.22;5055678;28;20069;-83
2022/07/02 04:59:04;;;;;;;2.92;0.98;;;;;;;24.95;100.00;148987.69;5055142;28;20016;-82
2022/07/02 05:01:30;;;;;;;3.60;1.10;;;;;;;24.70;100.00;148926.06;5056970;28;20033;-80
2022/07/02 05:03:57;;;;;;;4.53;1.10;;;;;;;25.03;100.00;149006.97;5054874;28;20028;-82
2022/07/02 05:06:23;;;;;;;3.13;1.10;;;;;;;25.04;100.00;149010.81;5038695;28;20036;-84
2022/07/02 05:08:49;;;;;;;3.97;0.90;;;;;;;24.75;100.00;148936.31;5055325;28;20016;-80
2022/07/02 05:11:16;;;;;;;5.57;1.10;;;;;;;23.67;100.00;148669.06;5054807;28;20024;-84
2022/07/02 05:13:45;;;;;;;4.93;1.15;;;;;;;24.19;100.00;148798.84;5071920;28;20025;-82
2022/07/02 05:16:10;;;;;;;3.28;0.77;;;;;;;24.82;100.00;148954.31;5054589;28;20129;-83
2022/07/02 05:18:36;;;;;;;4.38;1.17;;;;;;;25.63;100.00;149157.41;5053087;28;20075;-83
2022/07/02 05:21:01;;;;;;;3.63;1.00;;;;;;;23.58;100.00;148645.94;5054998;28;20091;-82
2022/07/02 05:23:28;;;;;;;4.63;1.00;;;;;;;21.92;100.00;148230.16;5072216;28;20043;-81
2022/07/02 05:25:53;;;;;;;4.82;1.10;;;;;;;20.80;100.00;147953.22;5054787;28;20035;-81
2022/07/02 05:28:19;;;;;;;4.55;1.15;;;;;;;20.18;100.00;147796.84;5074741;28;20025;-80
2022/07/02 05:30:44;;;;;;;4.28;1.10;;;;;;;19.62;100.00;147657.22;5074574;28;20032;-80
2022/07/02 05:33:14;;;;;;;3.22;1.08;;;;;;;18.95;100.00;147490.78;5061194;28;20468;-79
2022/07/02 05:35:40;;;;;;;4.88;1.10;;;;;;;18.42;100.00;147358.97;5054909;28;20103;-82
2022/07/02 05:38:05;;;;;;;4.20;1.10;;;;;;;18.39;100.00;147352.56;5053294;28;20099;-78
2022/07/02 05:40:31;;;;;;;3.45;1.08;;;;;;;18.24;100.00;147315.47;5053353;28;20032;-80
2022/07/02 05:42:57;;;;;;;4.05;1.00;;;;;;;17.82;100.00;147210.56;5072147;28;20093;-80
2022/07/02 05:45:23;;;;;;;4.72;1.40;;;;;;;18.36;100.00;147344.88;5072420;28;20067;-78
2022/07/02 05:47:48;;;;;;;5.20;1.30;;;;;;;18.94;100.00;147489.53;5062263;28;20098;-81
2022/07/02 05:50:14;;;;;;;5.22;1.17;;;;;;;18.83;100.00;147462.63;5088074;28;20062;-80
2022/07/02 05:52:39;;;;;;;3.88;1.00;;;;;;;18.36;100.00;147343.63;5054389;28;20023;-80
2022/07/02 05:55:05;;;;;;;3.55;1.00;;;;;;;18.43;100.00;147362.81;5071960;28;20782;-79
2022/07/02 05:57:31;;;;;;;5.55;1.20;;;;;;;18.54;100.00;147389.66;5053867;28;20036;-80
2022/07/02 05:59:56;;;;;;;4.18;1.20;;;;;;;18.20;100.00;147305.22;5054513;28;20021;-79
2022/07/02 06:02:22;;;;;;;3.47;1.20;;;;;;;18.20;100.00;147303.97;5057698;28;20020;-79
2022/07/02 06:04:53;;;;;;;5.85;1.35;;;;;;;17.91;100.00;147233.63;5058094;28;20028;-79
2022/07/02 06:10:02;;;;;;;3.13;1.10;;;;;;;17.70;100.00;147179.88;5077076;28;20131;-79
2022/07/02 06:12:28;;;;;;;4.30;0.95;;;;;;;17.90;100.00;147231.06;5086435;28;20051;-80
2022/07/02 06:14:53;;;;;;;3.10;1.13;;;;;;;17.63;100.00;147161.94;5057841;28;20029;-80
2022/07/02 06:17:19;;;;;;;5.40;1.20;;;;;;;17.56;100.00;147145.34;5076412;28;20076;-79
2022/07/02 06:19:47;;;;;;;4.30;1.10;;;;;;;17.81;100.00;147208.00;5057913;28;20051;-80
2022/07/02 06:22:12;;;;;;;6.05;1.20;;;;;;;17.99;100.00;147252.81;5058148;28;20021;-80
2022/07/02 06:24:40;;;;;;;4.00;1.10;;;;;;;18.38;100.00;147348.72;5056667;28;20024;-80
2022/07/02 06:27:05;;;;;;;4.88;1.20;;;;;;;18.13;100.00;147287.31;5059006;28;20032;-80
2022/07/02 06:29:32;;;;;;;4.72;1.05;;;;;;;17.99;100.00;147252.81;5057977;28;20027;-80
2022/07/02 06:31:58;;;;;;;4.65;1.10;;;;;;;17.97;100.00;147246.41;5057792;28;20024;-80
2022/07/02 06:34:29;;;;;;;4.55;0.90;;;;;;;18.08;100.00;147274.53;5057537;28;20579;-80
2022/07/02 06:36:55;;;;;;;3.97;1.08;;;;;;;18.20;100.00;147303.97;5057441;28;20481;-79
2022/07/02 06:39:20;;;;;;;3.92;0.90;;;;;;;18.13;100.00;147287.31;5057167;28;20057;-79
2022/07/02 06:44:29;;;;;;;3.40;0.90;;;;;;;18.98;100.00;147499.75;5073899;28;20091;-79
2022/07/02 06:46:55;;;;;;;5.03;1.17;;;;;;;18.44;100.00;147364.06;5089550;28;20044;-77
2022/07/02 06:49:20;;;;;;;5.15;0.82;;;;;;;18.46;100.00;147369.22;5074803;28;20515;-78
2022/07/02 06:51:45;;;;;;;4.45;0.90;;;;;;;18.34;100.00;147339.78;5056583;28;20082;-78
2022/07/02 06:54:17;;;;;;;5.28;1.00;;;;;;;18.72;100.00;147433.16;5057483;28;20020;-80
2022/07/02 06:56:43;;;;;;;6.53;1.13;;;;;;;19.11;100.00;147531.78;5056421;28;20044;-76
2022/07/02 06:59:08;;;;;;;4.88;0.93;;;;;;;19.92;100.00;147732.84;5056914;28;20051;-78
2022/07/02 07:01:34;;;;;;;2.05;0.63;;;;;;;19.71;100.00;147680.25;5056666;28;20032;-78
2022/07/02 07:03:59;;;;;;;4.15;0.98;;;;;;;19.93;100.00;147734.09;5067465;28;20481;-78
2022/07/02 07:07:10;;;;;;;5.07;1.25;;;;;;;19.85;100.00;147714.88;5055695;28;20089;-78
2022/07/02 07:09:10;;;;;;;2.72;0.70;;;;;;;21.22;100.00;148057.00;5055982;28;20029;-80
2022/07/02 07:11:36;;;;;;;1.58;0.50;;;;;;;22.48;100.00;148370.00;5055095;28;20073;-81
2022/07/02 07:14:02;;;;;;;2.03;0.60;;;;;;;23.01;100.00;148502.16;5055375;28;20031;-81
2022/07/02 07:16:27;;;;;;;2.78;0.82;;;;;;;23.42;100.00;148604.91;5076927;28;20045;-82
2022/07/02 07:19:00;;;;;;;3.25;0.57;;;;;;;24.75;100.00;148936.31;5071905;28;20052;-82
2022/07/02 07:21:25;;;;;;;2.85;0.63;;;;;;;24.84;100.00;148959.44;5071845;28;20033;-81
2022/07/02 07:23:50;;;;;;;2.60;0.50;;;;;;;25.03;100.00;149006.97;5049551;28;20470;-82
2022/07/02 07:26:16;;;;;;;2.28;0.60;;;;;;;25.67;100.00;149167.72;5044222;28;20056;-81
2022/07/02 07:28:41;;;;;;;2.40;0.50;;;;;;;25.47;100.00;149117.56;5047889;28;20035;-82
2022/07/02 07:31:07;;;;;;;2.45;0.68;;;;;;;26.03;100.00;149257.75;5045771;28;20457;-81
2022/07/02 07:33:33;;;;;;;3.05;0.65;;;;;;;26.17;100.00;149291.19;5048003;28;20094;-82
2022/07/02 07:35:59;;;;;;;1.95;0.60;;;;;;;25.89;100.00;149221.72;5036881;28;20039;-81
2022/07/02 07:38:24;;;;;;;2.42;0.70;;;;;;;25.77;100.00;149193.41;5036953;28;20037;-82
2022/07/02 07:41:06;;;;;;;2.13;0.63;;;;;;;25.26;100.00;149064.81;5071030;28;20032;-82
2022/07/02 07:43:32;;;;;;;2.47;0.50;;;;;;;25.67;100.00;149167.72;5041653;28;20045;-79
2022/07/02 07:46:00;;;;;;;2.95;0.73;;;;;;;26.17;100.00;149292.47;5050549;28;20111;-81
2022/07/02 07:48:28;;;;;;;2.47;0.60;;;;;;;27.16;100.00;149539.47;5069271;28;20465;-80
2022/07/02 07:50:53;;;;;;;3.15;0.50;;;;;;;26.88;100.00;149470.03;5051853;28;20021;-80
2022/07/02 07:53:18;;;;;;;3.55;0.60;;;;;;;27.17;100.00;149543.34;5055582;28;20626;-79
2022/07/02 07:55:50;;;;;;;2.22;0.60;;;;;;;27.49;100.00;149621.91;5072225;28;20612;-83
2022/07/02 07:58:15;;;;;;;1.65;0.50;;;;;;;26.43;100.00;149356.75;5088280;28;20020;-80
2022/07/02 08:00:41;;;;;;;1.55;0.60;;;;;;;26.20;100.00;149298.91;5050969;28;20381;-79
2022/07/02 08:03:27;;;;;;;4.03;0.60;;;;;;;26.17;100.00;149291.19;5034842;28;20025;-81
2022/07/02 08:05:54;;;;;;;2.95;0.70;;;;;;;26.64;100.00;149410.78;5038802;28;20028;-83
2022/07/02 08:08:23;;;;;;;2.55;0.60;;;;;;;26.63;100.00;149406.91;5055860;28;20023;-81
2022/07/02 08:10:48;;;;;;;1.85;0.60;;;;;;;26.50;100.00;149376.03;5055641;28;20122;-81
2022/07/02 08:13:16;;;;;;;1.48;0.52;;;;;;;25.29;100.00;149071.31;5045185;28;20056;-81
2022/07/02 08:16:02;;;;;;;2.58;0.68;;;;;;;25.70;100.00;149175.44;5071778;28;20041;-80
2022/07/02 08:18:27;;;;;;;2.10;0.60;;;;;;;25.73;100.00;149183.13;5051664;28;20021;-81
2022/07/02 08:20:53;;;;;;;1.38;0.50;;;;;;;26.40;100.00;149350.34;5051780;28;20075;-82
2022/07/02 08:23:39;;;;;;;3.13;0.50;;;;;;;27.17;100.00;149543.34;5050882;28;20020;-81
2022/07/02 08:26:04;;;;;;;1.00;0.40;;;;;;;26.80;100.00;149449.41;5051772;28;20051;-81
2022/07/02 08:28:30;;;;;;;3.25;0.60;;;;;;;26.21;100.00;149302.78;5051465;28;20021;-79
2022/07/02 08:31:03;;;;;;;1.10;0.50;;;;;;;26.13;100.00;149283.50;5083839;28;20136;-80
2022/07/02 08:34:07;;;;;;;2.38;0.60;;;;;;;25.76;100.00;149189.53;5084305;28;20032;-79
2022/07/02 08:36:32;;;;;;;1.52;0.60;;;;;;;24.79;100.00;148946.59;5051099;28;20035;-80
2022/07/02 08:39:00;;;;;;;2.67;0.70;;;;;;;26.17;100.00;149292.47;5050103;28;20021;-81
2022/07/02 08:41:26;;;;;;;2.13;0.60;;;;;;;25.18;100.00;149044.25;5084294;28;20112;-82
2022/07/02 08:43:53;;;;;;;1.30;0.60;;;;;;;25.84;100.00;149208.81;5051951;28;20508;-80
2022/07/02 08:46:19;;;;;;;2.35;0.60;;;;;;;25.94;100.00;149234.56;5051206;28;20029;-81
2022/07/02 08:48:46;;;;;;;2.75;0.77;;;;;;;26.56;100.00;149390.22;5083822;28;20021;-78
2022/07/02 08:51:14;;;;;;;2.33;0.68;;;;;;;26.85;100.00;149462.31;5084035;28;20413;-79
2022/07/02 08:53:42;;;;;;;3.40;0.77;;;;;;;27.15;100.00;149538.19;5049335;28;20086;-81
2022/07/02 08:56:09;;;;;;;2.85;0.68;;;;;;;26.93;100.00;149481.63;5083843;28;20059;-81
2022/07/02 08:58:36;;;;;;;3.80;0.88;;;;;;;27.12;100.00;149530.47;5051233;28;20050;-81
2022/07/02 09:01:02;;;;;;;2.75;0.60;;;;;;;27.02;100.00;149504.78;5083463;28;20465;-78
2022/07/02 09:03:28;;;;;;;3.47;1.00;;;;;;;26.94;100.00;149484.16;5083544;28;20032;-81
2022/07/02 09:05:55;;;;;;;2.75;0.80;;;;;;;27.37;100.00;149593.56;5050905;28;20486;-80
2022/07/02 09:08:24;;;;;;;2.50;0.70;;;;;;;26.32;100.00;149331.06;5051030;28;20062;-79
2022/07/02 09:10:52;;;;;;;2.83;0.80;;;;;;;26.42;100.00;149355.47;5049729;28;20056;-77
2022/07/02 09:13:19;;;;;;;2.72;0.90;;;;;;;26.65;100.00;149412.09;5049744;28;20033;-78
2022/07/02 09:15:46;;;;;;;1.60;0.60;;;;;;;26.56;100.00;149390.22;5050302;28;20126;-79
2022/07/02 09:18:13;;;;;;;2.78;1.15;;;;;;;26.31;100.00;149328.47;5050407;28;20549;-79
2022/07/02 09:20:39;;;;;;;2.53;0.90;;;;;;;25.94;100.00;149235.81;5049942;28;20026;-79
2022/07/02 09:23:20;;;;;;;3.15;0.70;;;;;;;26.03;100.00;149257.75;5049993;28;20044;-78
2022/07/02 09:25:47;;;;;;;2.28;0.70;;;;;;;25.24;100.00;149059.69;5050776;28;20171;-78
2022/07/02 09:28:14;;;;;;;2.88;0.90;;;;;;;25.07;100.00;149018.53;5050289;28;20021;-78
2022/07/02 09:30:39;;;;;;;2.65;0.70;;;;;;;25.42;100.00;149106.00;5067682;28;20500;-78
2022/07/02 09:33:38;;;;;;;3.50;0.65;;;;;;;25.69;100.00;149171.56;5031114;28;20033;-79
2022/07/02 09:36:13;;;;;;;4.25;0.82;;;;;;;25.91;100.00;149228.09;5038102;28;20057;-79
2022/07/02 09:38:47;;;;;;;3.35;0.68;;;;;;;25.56;100.00;149139.44;5071937;28;20040;-81
2022/07/02 09:41:14;;;;;;;1.77;0.60;;;;;;;25.04;100.00;149010.81;5065070;28;20024;-82
2022/07/02 09:43:40;;;;;;;2.05;0.65;;;;;;;25.59;100.00;149148.44;5077070;28;20036;-81
2022/07/02 09:46:17;;;;;;;2.17;0.80;;;;;;;25.84;100.00;149208.81;5076263;28;20028;-78
2022/07/02 09:48:42;;;;;;;3.65;0.60;;;;;;;26.22;100.00;149305.31;5076850;28;20020;-78
2022/07/02 09:51:08;;;;;;;1.98;0.70;;;;;;;26.17;100.00;149291.19;5078784;28;20093;-81
2022/07/02 09:53:33;;;;;;;2.97;0.80;;;;;;;25.49;100.00;149121.44;5077437;28;20067;-80
2022/07/02 09:56:02;;;;;;;3.40;0.73;;;;;;;25.06;100.00;149016.00;5077889;28;20020;-81
2022/07/02 09:58:28;;;;;;;2.03;0.60;;;;;;;24.88;100.00;148969.75;5078064;28;20056;-82
2022/07/02 10:00:59;;;;;;;2.42;0.80;;;;;;;24.54;100.00;148886.16;5077949;28;20496;-82
2022/07/02 10:03:28;;;;;;;3.00;0.95;;;;;;;24.75;100.00;148936.31;5077702;28;20039;-82
2022/07/02 10:05:54;;;;;;;2.28;0.70;;;;;;;24.86;100.00;148964.56;5077689;28;20115;-82
2022/07/02 10:08:21;;;;;;;2.10;0.60;;;;;;;24.62;100.00;148905.47;5078083;28;20024;-81
2022/07/02 10:10:47;;;;;;;1.90;0.60;;;;;;;24.46;100.00;148864.34;5077841;28;20028;-82
2022/07/02 10:13:14;;;;;;;2.08;0.60;;;;;;;24.47;100.00;148868.22;5077939;28;20483;-77
2022/07/02 10:15:47;;;;;;;2.40;0.68;;;;;;;24.95;100.00;148987.69;5075218;28;20126;-77
2022/07/02 10:18:14;;;;;;;2.38;0.80;;;;;;;24.51;100.00;148878.44;5077424;28;20029;-78
2022/07/02 10:20:39;;;;;;;2.30;0.73;;;;;;;24.59;100.00;148897.78;5076904;28;20402;-78
2022/07/02 10:23:05;;;;;;;1.58;0.60;;;;;;;24.96;100.00;148990.28;5077202;28;20451;-77
2022/07/02 10:25:33;;;;;;;1.33;0.40;;;;;;;24.71;100.00;148928.59;5077378;28;20032;-78
2022/07/02 10:27:59;;;;;;;1.85;0.60;;;;;;;24.77;100.00;148941.50;5077002;28;20052;-79
2022/07/02 10:30:29;;;;;;;1.55;0.50;;;;;;;24.99;100.00;148998.00;5077031;28;20108;-77
2022/07/02 10:33:18;;;;;;;2.25;0.70;;;;;;;24.77;100.00;148942.75;5078658;28;20028;-81
2022/07/02 10:35:46;;;;;;;3.25;0.75;;;;;;;25.02;100.00;149005.72;5077386;28;20033;-82
2022/07/02 10:38:11;;;;;;;3.15;0.90;;;;;;;25.04;100.00;149009.56;5077727;28;20032;-81
2022/07/02 10:40:47;;;;;;;3.33;0.90;;;;;;;25.46;100.00;149115.00;5077312;28;20049;-83
2022/07/02 10:43:17;;;;;;;1.60;0.68;;;;;;;24.88;100.00;148969.75;5077566;28;20032;-82
2022/07/02 10:45:42;;;;;;;4.63;0.70;;;;;;;25.12;100.00;149030.09;5077333;28;20033;-80
2022/07/02 10:48:10;;;;;;;1.75;0.80;;;;;;;24.34;100.00;148834.78;5073885;28;20021;-82
2022/07/02 10:50:35;;;;;;;2.65;0.93;;;;;;;24.18;100.00;148796.25;5074263;28;20028;-81
2022/07/02 10:53:09;;;;;;;2.47;0.65;;;;;;;24.57;100.00;148891.34;5074470;28;20139;-80
2022/07/02 10:55:35;;;;;;;3.70;1.00;;;;;;;24.52;100.00;148881.03;5074294;28;20172;-81
2022/07/02 10:58:05;;;;;;;4.07;1.08;;;;;;;24.18;100.00;148794.97;5074254;28;20031;-81
2022/07/02 11:00:37;;;;;;;2.22;1.02;;;;;;;24.09;100.00;148771.88;5074388;28;20024;-80
2022/07/02 11:03:34;;;;;;;4.05;1.13;;;;;;;24.05;100.00;148761.56;5074338;28;20408;-82
2022/07/02 11:06:01;;;;;;;3.17;0.93;;;;;;;24.33;100.00;148833.53;5074212;28;20025;-82
2022/07/02 11:08:46;;;;;;;2.83;1.33;;;;;;;24.55;100.00;148887.47;5073958;28;20059;-82
2022/07/02 11:11:22;;;;;;;3.40;1.25;;;;;;;24.36;100.00;148841.22;5074584;28;20042;-81
2022/07/02 11:13:55;;;;;;;3.05;1.30;;;;;;;24.44;100.00;148859.19;5071557;28;20035;-79
2022/07/02 11:16:25;;;;;;;6.53;1.90;;;;;;;24.88;100.00;148971.00;5071873;28;20051;-82
2022/07/02 11:18:53;;;;;;;3.33;1.20;;;;;;;24.87;100.00;148967.16;5073669;28;20032;-81
2022/07/02 11:21:20;;;;;;;3.45;1.23;;;;;;;25.17;100.00;149041.69;5073212;28;20024;-79
2022/07/02 11:23:46;;;;;;;3.08;1.13;;;;;;;24.88;100.00;148969.75;5072761;28;20067;-80
2022/07/02 11:26:24;;;;;;;3.78;1.42;;;;;;;24.68;100.00;148920.91;5073699;28;20029;-77